Airfield :
LOGIN :

Register | Disclaimer

   EN    FR    IT 

 










Legend :    VFR   Marginal VFR   IFR   Intensive IFR   Very Intensive IFR
Visi :
Ceiling :
>= 8 km
>= 3000ft
5 to 8 km
1000 to 3000 ft
1500m to 5 km
500 to 1000 ft
800 to 1500m
200 to 500 ft
< 800m
< 200 ft
Symbols :   Thunderstorms  Fog  Heavy snow  Heavy precipitations  Wind > 20 kt
SIGMETs :     Misc.  Thunderstorms  Icing  Turbulence  Mountain Waves  Volcanic Ashes







- Airport Elevation : 233 ft
- IATA code : REU


LERS - Reus Tarragona

CURRENT METAR :
  • 221800Z 05006KT 9999 FEW030 21/19 Q1020 RERA

EXPIRED METARs :
  • 221730Z VRB01KT 9999 -RA FEW030 21/18 Q1020
  • 221700Z 00000KT 9999 -RA FEW030 22/17 Q1020
  • 221630Z 00000KT 9999 FEW030 22/17 Q1020
  • 221600Z VRB02KT 9999 FEW030 22/15 Q1020
  • 221530Z 03005KT 360V060 9999 FEW030 22/16 Q1020

TAF TAF LERS
Valid from the 22 at 15:00 until the 23 at 15:00 UTC


221400Z 2215/2315 08005KT 9999 FEW020 BKN030 TX24/2313Z TN15/2306Z
PROB40
TEMPO 2215/2313 3000 TSRA BKN014 SCT025CB
No reported NOTAMs for that airfield.



MET'MAP, your aeronautical weather chart ! - Copyright ORBIFLY December 2007 - Disclaimer

ORBIFLY MET'MAP TEAM :

Programming & Development : Alexandra Zaïnal
Concept & Development : Baudouin d'Aumeries
Co-Development & Prog : Marc-Olivier Méhu
Technical & hardware support : Manuel Goepfert

Contact : metmap@orbifly.com




SOURCES & CREDITS :

   NOAA